createdAt,value
2023-01-29T00:02:27.120Z,33.10
2023-01-29T00:04:58.894Z,34.08
2023-01-29T00:07:26.869Z,32.40
2023-01-29T00:09:54.412Z,33.20
2023-01-29T00:12:22.049Z,33.38
2023-01-29T00:14:49.729Z,32.60
2023-01-29T00:17:17.308Z,31.70
2023-01-29T00:19:44.960Z,34.58
2023-01-29T00:22:12.429Z,32.67
2023-01-29T00:24:39.988Z,33.95
2023-01-29T00:27:08.126Z,33.13
2023-01-29T00:29:35.855Z,34.95
2023-01-29T00:32:03.559Z,34.13
2023-01-29T00:34:31.203Z,34.92
2023-01-29T00:37:09.061Z,31.60
2023-01-29T00:39:47.842Z,31.17
2023-01-29T00:42:34.455Z,31.80
2023-01-29T00:45:02.142Z,29.50
2023-01-29T00:47:35.535Z,30.58
2023-01-29T00:50:10.594Z,32.70
2023-01-29T00:52:41.074Z,30.42
2023-01-29T00:55:11.427Z,30.38
2023-01-29T00:57:39.195Z,30.83
2023-01-29T01:00:15.198Z,31.60
2023-01-29T01:03:02.333Z,28.70
2023-01-29T01:05:30.082Z,30.42
2023-01-29T01:07:59.079Z,29.10
2023-01-29T01:10:32.080Z,29.23
2023-01-29T01:13:04.586Z,31.83
2023-01-29T01:15:37.577Z,28.80
2023-01-29T01:18:05.925Z,29.73
2023-01-29T01:20:36.104Z,29.23
2023-01-29T01:23:04.300Z,29.15
2023-01-29T01:25:32.042Z,28.33
2023-01-29T01:28:03.170Z,31.60
2023-01-29T01:30:30.842Z,29.65
2023-01-29T01:32:59.523Z,28.48
2023-01-29T01:35:27.206Z,34.28
2023-01-29T01:37:54.871Z,31.02
2023-01-29T01:40:25.538Z,29.77
2023-01-29T01:42:58.508Z,29.55
2023-01-29T01:45:34.810Z,32.22
2023-01-29T01:48:15.474Z,29.17
2023-01-29T01:50:53.313Z,32.28
2023-01-29T01:53:54.207Z,30.95
2023-01-29T01:56:38.240Z,32.35
2023-01-29T01:59:11.024Z,32.60
2023-01-29T02:01:42.896Z,32.67
2023-01-29T02:04:36.941Z,34.92
2023-01-29T02:07:29.131Z,34.88
2023-01-29T02:10:17.362Z,32.90
2023-01-29T02:12:46.168Z,32.90
2023-01-29T02:15:13.932Z,34.60
2023-01-29T02:17:41.442Z,33.05
2023-01-29T02:20:17.698Z,34.13
2023-01-29T02:23:05.941Z,34.45
2023-01-29T02:25:45.401Z,33.33
2023-01-29T02:28:37.100Z,35.90
2023-01-29T02:31:28.351Z,35.25
2023-01-29T02:34:28.727Z,35.28
2023-01-29T02:37:14.618Z,36.08
2023-01-29T02:40:02.028Z,38.85
2023-01-29T02:42:48.940Z,37.90
2023-01-29T02:45:26.037Z,36.47
2023-01-29T02:48:02.173Z,37.83
2023-01-29T02:51:00.537Z,35.33
2023-01-29T02:53:39.213Z,40.45
2023-01-29T02:56:22.034Z,36.97
2023-01-29T02:59:09.911Z,38.47
2023-01-29T03:01:48.539Z,39.70
2023-01-29T03:04:25.810Z,42.92
2023-01-29T03:07:10.634Z,43.13
2023-01-29T03:09:48.806Z,41.35
2023-01-29T03:12:39.292Z,43.00
2023-01-29T03:15:18.197Z,43.88
2023-01-29T03:18:14.064Z,41.33
2023-01-29T03:20:58.414Z,44.25
2023-01-29T03:23:53.979Z,42.90
2023-01-29T03:26:41.946Z,46.92
2023-01-29T03:29:31.279Z,43.03
2023-01-29T03:32:06.672Z,46.20
2023-01-29T03:34:51.696Z,42.70
2023-01-29T03:37:31.014Z,44.80
2023-01-29T03:39:59.073Z,46.20
2023-01-29T03:42:50.260Z,47.72
2023-01-29T03:45:28.735Z,44.90
2023-01-29T03:48:23.312Z,46.80
2023-01-29T03:51:24.787Z,45.38
2023-01-29T03:54:26.400Z,43.53
2023-01-29T03:57:16.018Z,44.75
2023-01-29T04:00:04.641Z,46.22
2023-01-29T04:03:22.968Z,43.70
2023-01-29T04:06:09.813Z,47.78
2023-01-29T04:09:22.178Z,43.47
2023-01-29T04:12:03.967Z,43.60
2023-01-29T04:14:33.055Z,46.15
2023-01-29T04:17:11.193Z,45.70
2023-01-29T04:19:48.058Z,44.40
2023-01-29T04:22:35.364Z,46.38
2023-01-29T04:25:15.937Z,44.55
2023-01-29T04:28:13.702Z,44.60
2023-01-29T04:30:53.193Z,43.83
2023-01-29T04:33:53.155Z,46.42
2023-01-29T04:36:41.507Z,46.30
2023-01-29T04:39:21.061Z,46.10
2023-01-29T04:42:15.242Z,47.72
2023-01-29T04:44:59.666Z,46.58
2023-01-29T04:48:14.488Z,43.90
2023-01-29T04:50:57.526Z,48.00
2023-01-29T04:53:37.922Z,45.97
2023-01-29T04:56:34.427Z,44.15
2023-01-29T04:59:13.282Z,47.05
2023-01-29T05:01:41.878Z,42.00
2023-01-29T05:04:16.223Z,45.22
2023-01-29T05:06:46.880Z,47.15
2023-01-29T05:09:17.612Z,43.45
2023-01-29T05:11:47.697Z,44.70
2023-01-29T05:14:19.759Z,44.78
2023-01-29T05:16:54.035Z,45.78
2023-01-29T05:19:21.467Z,46.17
2023-01-29T05:21:50.732Z,43.10
2023-01-29T05:24:26.035Z,46.08
2023-01-29T05:27:13.308Z,43.05
2023-01-29T05:29:47.015Z,45.47
2023-01-29T05:32:16.519Z,42.78
2023-01-29T05:34:44.074Z,42.28
2023-01-29T05:37:11.610Z,45.05
2023-01-29T05:39:39.117Z,44.88
2023-01-29T05:42:06.666Z,43.67
2023-01-29T05:44:34.129Z,44.10
2023-01-29T05:47:02.778Z,44.95
2023-01-29T05:49:30.353Z,46.55
2023-01-29T05:51:57.839Z,46.35
2023-01-29T05:54:25.466Z,44.00
2023-01-29T05:56:53.023Z,43.78
2023-01-29T05:59:21.068Z,45.85
2023-01-29T06:01:48.572Z,44.15
2023-01-29T06:04:16.060Z,47.00
2023-01-29T06:06:44.639Z,45.17
2023-01-29T06:09:12.364Z,44.55
2023-01-29T06:11:40.168Z,45.42
2023-01-29T06:14:07.766Z,43.60
2023-01-29T06:16:35.328Z,47.42
2023-01-29T06:19:02.829Z,42.85
2023-01-29T06:21:30.377Z,46.35
2023-01-29T06:23:57.925Z,44.47
2023-01-29T06:26:25.481Z,43.35
2023-01-29T06:28:53.090Z,45.30
2023-01-29T06:31:36.838Z,42.35
2023-01-29T06:34:07.848Z,46.50
2023-01-29T06:36:35.617Z,50.00
2023-01-29T06:39:04.124Z,47.38
2023-01-29T06:41:31.721Z,44.33
2023-01-29T06:43:59.239Z,45.63
2023-01-29T06:46:26.745Z,48.42
2023-01-29T06:48:54.335Z,46.95
2023-01-29T06:51:22.941Z,46.22
2023-01-29T06:53:50.551Z,47.88
2023-01-29T06:56:18.049Z,47.83
2023-01-29T06:58:45.688Z,45.08
2023-01-29T07:01:33.037Z,48.05
2023-01-29T07:04:01.644Z,47.03
2023-01-29T07:06:30.006Z,47.38
2023-01-29T07:08:57.646Z,50.33
2023-01-29T07:11:25.200Z,48.55
2023-01-29T07:13:52.700Z,47.65
2023-01-29T07:16:23.325Z,48.97
2023-01-29T07:18:51.193Z,50.42
2023-01-29T07:21:18.842Z,52.03
2023-01-29T07:23:46.661Z,50.50
2023-01-29T07:26:14.112Z,49.97
2023-01-29T07:28:41.633Z,51.20
2023-01-29T07:31:13.422Z,46.90
2023-01-29T07:33:44.435Z,48.70
2023-01-29T07:36:13.576Z,49.17
2023-01-29T07:38:41.393Z,48.50
2023-01-29T07:41:11.714Z,47.33
2023-01-29T07:43:39.343Z,50.53
2023-01-29T07:46:07.081Z,47.13
2023-01-29T07:48:34.659Z,46.05
2023-01-29T07:51:02.424Z,46.33
2023-01-29T07:53:30.806Z,47.55
2023-01-29T07:55:58.559Z,47.80
2023-01-29T07:58:26.116Z,47.20
2023-01-29T08:00:53.845Z,48.38
2023-01-29T08:03:21.408Z,47.13
2023-01-29T08:05:49.343Z,47.15
2023-01-29T08:08:17.139Z,46.00
2023-01-29T08:10:44.713Z,45.60
2023-01-29T08:13:12.285Z,47.63
2023-01-29T08:15:45.195Z,46.75
2023-01-29T08:18:14.766Z,46.40
2023-01-29T08:20:42.449Z,46.72
2023-01-29T08:23:15.657Z,43.30
2023-01-29T08:25:43.401Z,46.50
2023-01-29T08:28:11.811Z,48.05
2023-01-29T08:30:39.901Z,44.92
2023-01-29T08:33:08.528Z,45.83
2023-01-29T08:35:36.628Z,43.15
2023-01-29T08:38:05.595Z,48.50
2023-01-29T08:40:35.504Z,44.88
2023-01-29T08:43:08.696Z,45.72
2023-01-29T08:45:41.257Z,44.20
2023-01-29T08:48:10.365Z,45.65
2023-01-29T08:50:39.150Z,47.67
2023-01-29T08:53:09.072Z,44.70
2023-01-29T08:55:39.599Z,46.08
2023-01-29T08:58:11.354Z,47.53
2023-01-29T09:00:39.402Z,45.28
2023-01-29T09:03:07.973Z,46.15
2023-01-29T09:05:40.879Z,45.92
2023-01-29T09:08:10.056Z,43.95
2023-01-29T09:10:37.610Z,45.45
2023-01-29T09:13:05.475Z,44.38
2023-01-29T09:15:32.979Z,42.88
2023-01-29T09:18:04.514Z,43.45
2023-01-29T09:20:33.155Z,42.28
2023-01-29T09:23:06.589Z,42.58
2023-01-29T09:25:34.373Z,44.25
2023-01-29T09:28:02.170Z,43.60
2023-01-29T09:30:29.771Z,42.65
2023-01-29T09:32:57.256Z,42.97
2023-01-29T09:35:24.978Z,43.08
2023-01-29T09:37:52.746Z,42.05
2023-01-29T09:40:35.348Z,41.53
2023-01-29T09:43:24.370Z,43.55
2023-01-29T09:46:20.912Z,44.95
2023-01-29T09:49:01.808Z,42.25
2023-01-29T09:51:41.272Z,41.60
2023-01-29T09:54:23.146Z,45.50
2023-01-29T09:59:26.728Z,42.05
2023-01-29T10:02:43.331Z,39.53
2023-01-29T10:05:43.827Z,41.17
2023-01-29T10:09:14.227Z,40.47
2023-01-29T10:12:21.324Z,41.95
2023-01-29T10:15:26.384Z,36.72
2023-01-29T10:18:35.294Z,39.53
2023-01-29T10:21:49.380Z,41.47
2023-01-29T10:25:00.186Z,43.05
2023-01-29T10:27:34.447Z,43.40
2023-01-29T10:30:32.318Z,42.13
2023-01-29T10:33:04.670Z,42.08
2023-01-29T10:35:39.284Z,40.97
2023-01-29T10:38:35.115Z,41.78
2023-01-29T10:41:22.786Z,42.08
2023-01-29T10:45:02.809Z,39.72
2023-01-29T10:47:36.733Z,38.33
2023-01-29T10:50:29.907Z,38.65
2023-01-29T10:53:06.021Z,38.33
2023-01-29T10:56:30.289Z,40.50
2023-01-29T10:59:42.507Z,37.42
2023-01-29T11:02:22.071Z,37.05
2023-01-29T11:04:49.858Z,39.38
2023-01-29T11:07:22.321Z,36.22
2023-01-29T11:10:02.896Z,38.33
2023-01-29T11:12:33.485Z,38.33
2023-01-29T11:15:21.145Z,34.45
2023-01-29T11:18:06.317Z,34.45
2023-01-29T11:20:34.365Z,35.13
2023-01-29T11:23:02.046Z,34.22
2023-01-29T11:25:32.654Z,33.33
2023-01-29T11:28:02.335Z,33.25
2023-01-29T11:30:38.791Z,32.17
2023-01-29T11:33:21.995Z,32.75
2023-01-29T11:35:52.591Z,32.70
2023-01-29T11:38:26.193Z,32.95
2023-01-29T11:41:06.755Z,31.25
2023-01-29T11:43:34.900Z,31.52
2023-01-29T11:46:13.396Z,31.55
2023-01-29T11:48:59.130Z,30.50
2023-01-29T11:51:30.066Z,30.45
2023-01-29T11:54:06.589Z,31.73
2023-01-29T11:56:45.355Z,31.40
2023-01-29T11:59:44.256Z,30.15
2023-01-29T12:02:32.204Z,29.40
2023-01-29T12:05:15.430Z,27.70
2023-01-29T12:07:47.420Z,30.20
2023-01-29T12:10:40.379Z,28.67
2023-01-29T12:13:28.454Z,28.17
2023-01-29T12:16:18.295Z,29.40
2023-01-29T12:18:54.661Z,28.40
2023-01-29T12:21:55.983Z,27.88
2023-01-29T12:24:43.943Z,27.47
2023-01-29T12:27:30.280Z,26.77
2023-01-29T12:31:04.170Z,26.55
2023-01-29T12:34:12.691Z,30.02
2023-01-29T12:36:53.526Z,27.02
2023-01-29T12:39:21.990Z,27.40
2023-01-29T12:42:13.209Z,26.60
2023-01-29T12:44:53.043Z,30.47
2023-01-29T12:47:26.653Z,28.65
2023-01-29T12:50:02.134Z,28.90
2023-01-29T12:52:50.163Z,29.10
2023-01-29T12:55:24.251Z,29.20
2023-01-29T12:58:04.197Z,28.63
2023-01-29T13:00:44.907Z,28.35
2023-01-29T13:03:29.726Z,30.77
2023-01-29T13:06:04.193Z,29.02
2023-01-29T13:08:53.735Z,26.10
2023-01-29T13:11:35.162Z,30.40
2023-01-29T13:14:22.800Z,33.78
2023-01-29T13:17:03.098Z,30.98
2023-01-29T13:19:43.447Z,31.02
2023-01-29T13:22:29.619Z,30.83
2023-01-29T13:25:04.820Z,30.17
2023-01-29T13:27:36.959Z,31.25
2023-01-29T13:30:05.590Z,32.78
2023-01-29T13:32:36.199Z,31.55
2023-01-29T13:35:15.489Z,32.08
2023-01-29T13:37:52.257Z,32.88
2023-01-29T13:40:30.300Z,34.08
2023-01-29T13:43:00.629Z,30.90
2023-01-29T13:45:44.176Z,33.30
2023-01-29T13:48:35.734Z,33.97
2023-01-29T13:51:17.749Z,34.65
2023-01-29T13:53:58.502Z,35.47
2023-01-29T13:56:33.380Z,33.17
2023-01-29T13:59:23.000Z,34.45
2023-01-29T14:01:50.588Z,36.25
2023-01-29T14:04:29.163Z,35.30
2023-01-29T14:07:03.301Z,36.97
2023-01-29T14:09:36.895Z,33.80
2023-01-29T14:12:25.571Z,33.38
2023-01-29T14:14:56.694Z,34.42
2023-01-29T14:17:27.474Z,37.05
2023-01-29T14:20:19.328Z,34.15
2023-01-29T14:22:57.750Z,36.78
2023-01-29T14:25:33.721Z,35.67
2023-01-29T14:28:04.626Z,36.13
2023-01-29T14:30:36.357Z,34.60
2023-01-29T14:35:34.051Z,35.25
2023-01-29T14:38:06.572Z,36.22
2023-01-29T14:40:37.017Z,36.15
2023-01-29T14:43:19.899Z,36.75
2023-01-29T14:45:49.523Z,37.55
2023-01-29T14:48:48.643Z,35.78
2023-01-29T14:51:20.216Z,37.20
2023-01-29T14:54:14.095Z,37.92
2023-01-29T14:56:58.510Z,39.45
2023-01-29T14:59:56.398Z,37.22
2023-01-29T15:02:38.520Z,40.88
2023-01-29T15:05:37.202Z,37.33
2023-01-29T15:08:32.743Z,40.13
2023-01-29T15:11:27.995Z,35.78
2023-01-29T15:14:24.579Z,40.22
2023-01-29T15:17:18.184Z,39.67
2023-01-29T15:19:48.479Z,39.67
2023-01-29T15:22:22.064Z,38.88
2023-01-29T15:25:19.189Z,38.65
2023-01-29T15:27:48.194Z,35.67
2023-01-29T15:30:22.400Z,38.35
2023-01-29T15:32:50.293Z,39.53
2023-01-29T15:35:33.133Z,41.88
2023-01-29T15:38:19.884Z,36.63
2023-01-29T15:41:02.545Z,38.25
2023-01-29T15:43:44.548Z,37.85
2023-01-29T15:46:28.402Z,35.47
2023-01-29T15:49:01.499Z,35.55
2023-01-29T15:51:30.126Z,39.72
2023-01-29T15:54:10.213Z,37.78
2023-01-29T15:56:47.299Z,35.28
2023-01-29T15:59:39.403Z,36.88
2023-01-29T16:02:34.706Z,37.47
2023-01-29T16:05:05.556Z,37.70
2023-01-29T16:07:34.775Z,35.33
2023-01-29T16:10:03.464Z,37.33
2023-01-29T16:12:34.284Z,34.95
2023-01-29T16:15:05.129Z,38.17
2023-01-29T16:17:35.420Z,34.87
2023-01-29T16:20:07.908Z,35.28
2023-01-29T16:22:38.905Z,32.80
2023-01-29T16:25:14.690Z,36.80
2023-01-29T16:27:44.367Z,36.15
2023-01-29T16:30:17.748Z,36.22
2023-01-29T16:32:45.414Z,37.92
2023-01-29T16:35:17.223Z,37.35
2023-01-29T16:37:51.449Z,38.30
2023-01-29T16:40:34.148Z,33.80
2023-01-29T16:43:28.407Z,37.00
2023-01-29T16:46:46.095Z,37.72
2023-01-29T16:49:39.863Z,36.33
2023-01-29T16:52:54.666Z,36.85
2023-01-29T16:55:25.408Z,38.83
2023-01-29T16:57:55.800Z,38.28
2023-01-29T17:00:29.645Z,41.90
2023-01-29T17:03:07.573Z,37.63
2023-01-29T17:05:38.376Z,38.30
2023-01-29T17:08:07.520Z,39.10
2023-01-29T17:10:35.985Z,36.13
2023-01-29T17:13:15.089Z,38.88
2023-01-29T17:15:45.443Z,38.90
2023-01-29T17:18:25.273Z,34.47
2023-01-29T17:20:53.090Z,36.58
2023-01-29T17:23:22.244Z,41.58
2023-01-29T17:25:50.172Z,35.67
2023-01-29T17:28:18.221Z,34.53
2023-01-29T17:30:56.526Z,37.72
2023-01-29T17:33:32.675Z,34.72
2023-01-29T17:36:00.324Z,37.08
2023-01-29T17:38:27.835Z,37.80
2023-01-29T17:41:14.610Z,35.15
2023-01-29T17:43:44.120Z,36.35
2023-01-29T17:46:17.572Z,33.10
2023-01-29T17:48:46.153Z,33.17
2023-01-29T17:51:17.105Z,31.80
2023-01-29T17:53:46.629Z,32.63
2023-01-29T17:56:27.594Z,33.08
2023-01-29T17:58:55.282Z,30.77
2023-01-29T18:01:22.747Z,30.85
2023-01-29T18:03:50.324Z,33.05
2023-01-29T18:06:29.724Z,37.20
2023-01-29T18:08:58.485Z,31.52
2023-01-29T18:11:26.002Z,32.85
2023-01-29T18:13:53.808Z,33.25
2023-01-29T18:16:22.678Z,30.70
2023-01-29T18:18:52.493Z,32.15
2023-01-29T18:21:20.165Z,31.17
2023-01-29T18:23:47.629Z,30.73
2023-01-29T18:26:17.414Z,31.95
2023-01-29T18:28:45.151Z,30.75
2023-01-29T18:31:14.451Z,30.30
2023-01-29T18:33:42.197Z,30.00
2023-01-29T18:36:09.838Z,31.45
2023-01-29T18:38:37.304Z,31.90
2023-01-29T18:41:07.169Z,31.05
2023-01-29T18:43:34.741Z,29.98
2023-01-29T18:46:02.322Z,30.45
2023-01-29T18:48:31.101Z,31.08
2023-01-29T18:50:59.620Z,30.20
2023-01-29T18:53:27.442Z,29.27
2023-01-29T18:56:02.712Z,31.20
2023-01-29T18:58:36.238Z,32.08
2023-01-29T19:01:11.695Z,28.38
2023-01-29T19:03:41.574Z,29.10
2023-01-29T19:06:11.651Z,31.42
2023-01-29T19:08:40.771Z,32.05
2023-01-29T19:11:09.066Z,33.65
2023-01-29T19:13:38.043Z,28.88
2023-01-29T19:16:12.642Z,30.83
2023-01-29T19:18:40.205Z,34.50
2023-01-29T19:21:14.164Z,31.63
2023-01-29T19:23:43.637Z,33.67
2023-01-29T19:26:12.037Z,35.50
2023-01-29T19:28:40.577Z,35.47
2023-01-29T19:31:09.361Z,34.97
2023-01-29T19:33:36.969Z,33.10
2023-01-29T19:36:05.278Z,34.38
2023-01-29T19:38:37.704Z,36.45
2023-01-29T19:41:05.872Z,35.17
2023-01-29T19:43:33.497Z,35.03
2023-01-29T19:46:02.419Z,37.60
2023-01-29T19:48:30.271Z,38.13
2023-01-29T19:51:04.274Z,34.72
2023-01-29T19:53:32.092Z,34.38
2023-01-29T19:56:03.440Z,36.80
2023-01-29T19:58:32.433Z,35.40
2023-01-29T20:01:17.149Z,38.35
2023-01-29T20:03:49.405Z,36.35
2023-01-29T20:06:22.329Z,35.13
2023-01-29T20:08:50.053Z,39.20
2023-01-29T20:11:21.561Z,36.97
2023-01-29T20:13:51.817Z,41.85
2023-01-29T20:16:20.765Z,42.97
2023-01-29T20:18:49.394Z,38.85
2023-01-29T20:21:22.036Z,37.75
2023-01-29T20:23:51.398Z,41.22
2023-01-29T20:26:19.499Z,39.05
2023-01-29T20:28:48.514Z,39.67
2023-01-29T20:31:16.374Z,40.80
2023-01-29T20:33:44.387Z,38.08
2023-01-29T20:36:14.609Z,37.83
2023-01-29T20:38:42.276Z,41.50
2023-01-29T20:41:14.157Z,36.88
2023-01-29T20:43:42.959Z,38.97
2023-01-29T20:46:11.578Z,35.40
2023-01-29T20:48:40.046Z,41.53
2023-01-29T20:51:15.637Z,42.35
2023-01-29T20:53:46.378Z,40.35
2023-01-29T20:56:17.022Z,41.97
2023-01-29T20:58:46.736Z,35.85
2023-01-29T21:01:18.906Z,37.90
2023-01-29T21:03:47.663Z,40.60
2023-01-29T21:06:15.976Z,38.80
2023-01-29T21:08:43.443Z,39.53
2023-01-29T21:11:11.524Z,41.47
2023-01-29T21:13:39.118Z,39.40
2023-01-29T21:16:07.082Z,41.10
2023-01-29T21:18:34.554Z,40.30
2023-01-29T21:21:02.062Z,42.47
2023-01-29T21:23:29.654Z,42.88
2023-01-29T21:26:05.681Z,38.42
2023-01-29T21:28:34.418Z,39.88
2023-01-29T21:31:05.546Z,38.08
2023-01-29T21:33:34.377Z,38.67
2023-01-29T21:36:02.290Z,36.35
2023-01-29T21:38:29.859Z,40.30
2023-01-29T21:41:02.838Z,40.83
2023-01-29T21:43:31.161Z,42.05
2023-01-29T21:46:04.905Z,37.35
2023-01-29T21:48:32.868Z,39.83
2023-01-29T21:51:00.403Z,37.35
2023-01-29T21:53:27.882Z,38.70
2023-01-29T21:56:03.727Z,38.20
2023-01-29T21:58:32.541Z,41.50
2023-01-29T22:01:18.099Z,44.03
2023-01-29T22:03:47.804Z,35.85
2023-01-29T22:06:15.953Z,40.55
2023-01-29T22:08:43.525Z,41.72
2023-01-29T22:11:11.239Z,41.10
2023-01-29T22:13:39.035Z,42.90
2023-01-29T22:16:06.967Z,40.80
2023-01-29T22:18:34.903Z,36.90
2023-01-29T22:21:03.000Z,40.20
2023-01-29T22:23:31.812Z,42.80
2023-01-29T22:26:04.402Z,40.53
2023-01-29T22:28:32.054Z,42.50
2023-01-29T22:31:04.898Z,40.83
2023-01-29T22:33:33.467Z,42.53
2023-01-29T22:36:01.600Z,45.13
2023-01-29T22:38:29.629Z,41.10
2023-01-29T22:41:00.153Z,43.15
2023-01-29T22:43:29.228Z,41.92
2023-01-29T22:45:56.887Z,41.60
2023-01-29T22:48:24.700Z,45.78
2023-01-29T22:51:09.935Z,43.13
2023-01-29T22:53:44.592Z,44.25
2023-01-29T22:56:12.624Z,44.15
2023-01-29T22:58:41.237Z,45.75
2023-01-29T23:01:10.487Z,43.35
2023-01-29T23:03:38.211Z,48.47
2023-01-29T23:06:06.025Z,41.35
2023-01-29T23:08:34.777Z,46.42
2023-01-29T23:11:14.975Z,43.95
2023-01-29T23:13:44.984Z,41.00
2023-01-29T23:16:15.775Z,42.92
2023-01-29T23:18:44.661Z,44.13
2023-01-29T23:21:12.616Z,42.53
2023-01-29T23:23:40.187Z,46.13
2023-01-29T23:26:28.857Z,47.67
2023-01-29T23:28:56.630Z,45.42
2023-01-29T23:31:24.560Z,48.75
2023-01-29T23:33:52.131Z,46.47
2023-01-29T23:36:20.032Z,42.22
2023-01-29T23:38:47.600Z,46.50
2023-01-29T23:41:16.122Z,44.58
2023-01-29T23:43:43.954Z,43.75
2023-01-29T23:46:11.713Z,45.65
2023-01-29T23:48:39.474Z,44.17
2023-01-29T23:51:07.072Z,46.63
2023-01-29T23:53:34.690Z,45.65
2023-01-29T23:56:05.443Z,47.05
2023-01-29T23:58:33.581Z,49.00
